sensor_id;sensor_type;location;lat;lon;timestamp;P1;durP1;ratioP1;P2;durP2;ratioP2
2446;SDS011;26430;48.818;9.244;2023-05-17T00:00:31;4.90;;;0.90;;
2446;SDS011;26430;48.818;9.244;2023-05-17T00:02:57;4.90;;;0.80;;
2446;SDS011;26430;48.818;9.244;2023-05-17T00:05:22;4.87;;;0.80;;
2446;SDS011;26430;48.818;9.244;2023-05-17T00:07:48;4.90;;;0.90;;
2446;SDS011;26430;48.818;9.244;2023-05-17T00:10:14;4.87;;;0.90;;
2446;SDS011;26430;48.818;9.244;2023-05-17T00:12:39;4.90;;;0.90;;
2446;SDS011;26430;48.818;9.244;2023-05-17T00:15:05;4.90;;;0.80;;
2446;SDS011;26430;48.818;9.244;2023-05-17T00:17:31;4.90;;;0.90;;
2446;SDS011;26430;48.818;9.244;2023-05-17T00:19:56;4.87;;;0.90;;
2446;SDS011;26430;48.818;9.244;2023-05-17T00:22:22;4.83;;;0.80;;
2446;SDS011;26430;48.818;9.244;2023-05-17T00:24:48;4.90;;;1.10;;
2446;SDS011;26430;48.818;9.244;2023-05-17T00:27:13;4.90;;;1.10;;
2446;SDS011;26430;48.818;9.244;2023-05-17T00:29:39;4.87;;;0.80;;
2446;SDS011;26430;48.818;9.244;2023-05-17T00:32:05;4.87;;;0.80;;
2446;SDS011;26430;48.818;9.244;2023-05-17T00:34:30;4.90;;;0.90;;
2446;SDS011;26430;48.818;9.244;2023-05-17T00:36:56;4.90;;;0.80;;
2446;SDS011;26430;48.818;9.244;2023-05-17T00:39:22;4.90;;;0.80;;
2446;SDS011;26430;48.818;9.244;2023-05-17T00:41:47;4.87;;;0.90;;
2446;SDS011;26430;48.818;9.244;2023-05-17T00:44:13;4.90;;;0.90;;
2446;SDS011;26430;48.818;9.244;2023-05-17T00:46:38;4.90;;;0.90;;
2446;SDS011;26430;48.818;9.244;2023-05-17T00:49:04;4.90;;;0.90;;
2446;SDS011;26430;48.818;9.244;2023-05-17T00:51:30;4.87;;;0.83;;
2446;SDS011;26430;48.818;9.244;2023-05-17T00:53:56;4.90;;;0.90;;
2446;SDS011;26430;48.818;9.244;2023-05-17T00:56:22;4.80;;;0.90;;
2446;SDS011;26430;48.818;9.244;2023-05-17T00:58:48;4.88;;;0.90;;
2446;SDS011;26430;48.818;9.244;2023-05-17T01:01:14;4.80;;;0.90;;
2446;SDS011;26430;48.818;9.244;2023-05-17T01:03:39;4.90;;;0.90;;
2446;SDS011;26430;48.818;9.244;2023-05-17T01:06:05;4.85;;;0.90;;
2446;SDS011;26430;48.818;9.244;2023-05-17T01:08:31;4.83;;;0.90;;
2446;SDS011;26430;48.818;9.244;2023-05-17T01:11:13;4.80;;;0.90;;
2446;SDS011;26430;48.818;9.244;2023-05-17T01:16:47;4.88;;;0.90;;
2446;SDS011;26430;48.818;9.244;2023-05-17T01:27:05;4.82;;;0.80;;
2446;SDS011;26430;48.818;9.244;2023-05-17T01:29:33;4.85;;;0.90;;
2446;SDS011;26430;48.818;9.244;2023-05-17T01:32:00;4.82;;;0.80;;
2446;SDS011;26430;48.818;9.244;2023-05-17T01:34:28;4.85;;;0.90;;
2446;SDS011;26430;48.818;9.244;2023-05-17T01:36:54;4.87;;;0.80;;
2446;SDS011;26430;48.818;9.244;2023-05-17T01:39:21;4.90;;;0.80;;
2446;SDS011;26430;48.818;9.244;2023-05-17T01:42:11;4.83;;;0.90;;
2446;SDS011;26430;48.818;9.244;2023-05-17T01:47:44;4.90;;;0.90;;
2446;SDS011;26430;48.818;9.244;2023-05-17T01:50:25;4.90;;;0.90;;
2446;SDS011;26430;48.818;9.244;2023-05-17T01:52:54;4.85;;;0.80;;
2446;SDS011;26430;48.818;9.244;2023-05-17T01:55:40;4.88;;;0.80;;
2446;SDS011;26430;48.818;9.244;2023-05-17T01:58:12;4.85;;;0.80;;
2446;SDS011;26430;48.818;9.244;2023-05-17T02:00:40;4.85;;;0.82;;
2446;SDS011;26430;48.818;9.244;2023-05-17T02:03:18;4.85;;;0.88;;
2446;SDS011;26430;48.818;9.244;2023-05-17T02:05:44;4.90;;;0.90;;
2446;SDS011;26430;48.818;9.244;2023-05-17T02:08:10;4.87;;;0.90;;
2446;SDS011;26430;48.818;9.244;2023-05-17T02:10:36;4.83;;;0.80;;
2446;SDS011;26430;48.818;9.244;2023-05-17T02:13:01;4.83;;;0.90;;
2446;SDS011;26430;48.818;9.244;2023-05-17T02:15:27;4.87;;;0.83;;
2446;SDS011;26430;48.818;9.244;2023-05-17T02:17:53;4.90;;;0.90;;
2446;SDS011;26430;48.818;9.244;2023-05-17T02:20:18;4.87;;;0.90;;
2446;SDS011;26430;48.818;9.244;2023-05-17T02:22:44;4.85;;;0.80;;
2446;SDS011;26430;48.818;9.244;2023-05-17T02:25:10;4.83;;;0.90;;
2446;SDS011;26430;48.818;9.244;2023-05-17T02:27:36;4.90;;;0.90;;
2446;SDS011;26430;48.818;9.244;2023-05-17T02:30:01;4.87;;;0.90;;
2446;SDS011;26430;48.818;9.244;2023-05-17T02:32:28;4.90;;;0.80;;
2446;SDS011;26430;48.818;9.244;2023-05-17T02:34:54;4.88;;;0.90;;
2446;SDS011;26430;48.818;9.244;2023-05-17T02:37:20;4.90;;;0.80;;
2446;SDS011;26430;48.818;9.244;2023-05-17T02:39:46;4.90;;;0.90;;
2446;SDS011;26430;48.818;9.244;2023-05-17T02:42:11;4.90;;;0.80;;
2446;SDS011;26430;48.818;9.244;2023-05-17T02:44:37;4.83;;;0.90;;
2446;SDS011;26430;48.818;9.244;2023-05-17T02:47:03;4.90;;;0.90;;
2446;SDS011;26430;48.818;9.244;2023-05-17T02:49:29;4.87;;;0.83;;
2446;SDS011;26430;48.818;9.244;2023-05-17T02:51:54;4.87;;;0.90;;
2446;SDS011;26430;48.818;9.244;2023-05-17T02:54:20;4.83;;;0.83;;
2446;SDS011;26430;48.818;9.244;2023-05-17T02:56:46;4.87;;;0.90;;
2446;SDS011;26430;48.818;9.244;2023-05-17T02:59:11;4.90;;;0.90;;
2446;SDS011;26430;48.818;9.244;2023-05-17T03:01:37;4.90;;;0.90;;
2446;SDS011;26430;48.818;9.244;2023-05-17T03:04:02;4.90;;;0.90;;
2446;SDS011;26430;48.818;9.244;2023-05-17T03:06:28;4.83;;;0.90;;
2446;SDS011;26430;48.818;9.244;2023-05-17T03:08:53;4.80;;;0.80;;
2446;SDS011;26430;48.818;9.244;2023-05-17T03:11:19;4.90;;;0.80;;
2446;SDS011;26430;48.818;9.244;2023-05-17T03:13:44;4.90;;;0.80;;
2446;SDS011;26430;48.818;9.244;2023-05-17T03:16:15;4.90;;;0.80;;
2446;SDS011;26430;48.818;9.244;2023-05-17T03:18:41;4.90;;;0.90;;
2446;SDS011;26430;48.818;9.244;2023-05-17T03:21:06;4.90;;;0.80;;
2446;SDS011;26430;48.818;9.244;2023-05-17T03:23:32;4.83;;;0.90;;
2446;SDS011;26430;48.818;9.244;2023-05-17T03:25:57;4.90;;;0.80;;
2446;SDS011;26430;48.818;9.244;2023-05-17T03:28:23;4.90;;;0.90;;
2446;SDS011;26430;48.818;9.244;2023-05-17T03:30:49;4.90;;;0.90;;
2446;SDS011;26430;48.818;9.244;2023-05-17T03:33:14;4.90;;;0.90;;
2446;SDS011;26430;48.818;9.244;2023-05-17T03:35:40;4.90;;;0.90;;
2446;SDS011;26430;48.818;9.244;2023-05-17T03:38:05;4.83;;;0.80;;
2446;SDS011;26430;48.818;9.244;2023-05-17T03:40:31;4.87;;;0.90;;
2446;SDS011;26430;48.818;9.244;2023-05-17T03:42:57;4.87;;;0.80;;
2446;SDS011;26430;48.818;9.244;2023-05-17T03:45:22;4.90;;;0.80;;
2446;SDS011;26430;48.818;9.244;2023-05-17T03:47:48;4.90;;;0.80;;
2446;SDS011;26430;48.818;9.244;2023-05-17T03:50:13;4.90;;;0.80;;
2446;SDS011;26430;48.818;9.244;2023-05-17T03:52:39;4.80;;;0.80;;
2446;SDS011;26430;48.818;9.244;2023-05-17T03:55:06;4.90;;;0.80;;
2446;SDS011;26430;48.818;9.244;2023-05-17T03:57:32;4.90;;;0.90;;
2446;SDS011;26430;48.818;9.244;2023-05-17T03:59:57;4.90;;;0.83;;
2446;SDS011;26430;48.818;9.244;2023-05-17T04:02:23;4.90;;;0.80;;
2446;SDS011;26430;48.818;9.244;2023-05-17T04:04:49;4.90;;;0.80;;
2446;SDS011;26430;48.818;9.244;2023-05-17T04:07:16;4.85;;;0.80;;
2446;SDS011;26430;48.818;9.244;2023-05-17T04:09:42;4.80;;;0.80;;
2446;SDS011;26430;48.818;9.244;2023-05-17T04:12:08;4.90;;;0.90;;
2446;SDS011;26430;48.818;9.244;2023-05-17T04:14:35;4.90;;;0.80;;
2446;SDS011;26430;48.818;9.244;2023-05-17T04:17:01;4.90;;;0.90;;
2446;SDS011;26430;48.818;9.244;2023-05-17T04:19:26;4.83;;;0.80;;
2446;SDS011;26430;48.818;9.244;2023-05-17T04:21:52;4.90;;;0.90;;
2446;SDS011;26430;48.818;9.244;2023-05-17T04:24:18;4.85;;;0.80;;
2446;SDS011;26430;48.818;9.244;2023-05-17T04:26:44;4.90;;;0.80;;
2446;SDS011;26430;48.818;9.244;2023-05-17T04:29:10;4.83;;;0.90;;
2446;SDS011;26430;48.818;9.244;2023-05-17T04:31:35;4.87;;;0.90;;
2446;SDS011;26430;48.818;9.244;2023-05-17T04:34:01;4.83;;;0.90;;
2446;SDS011;26430;48.818;9.244;2023-05-17T04:36:26;4.87;;;0.80;;
2446;SDS011;26430;48.818;9.244;2023-05-17T04:38:52;4.77;;;0.83;;
2446;SDS011;26430;48.818;9.244;2023-05-17T04:41:18;4.83;;;0.80;;
2446;SDS011;26430;48.818;9.244;2023-05-17T04:43:43;4.83;;;0.80;;
2446;SDS011;26430;48.818;9.244;2023-05-17T04:46:09;4.87;;;0.90;;
2446;SDS011;26430;48.818;9.244;2023-05-17T04:48:34;4.83;;;0.80;;
2446;SDS011;26430;48.818;9.244;2023-05-17T04:51:01;4.80;;;0.80;;
2446;SDS011;26430;48.818;9.244;2023-05-17T04:53:28;4.82;;;0.90;;
2446;SDS011;26430;48.818;9.244;2023-05-17T04:55:53;4.80;;;0.80;;
2446;SDS011;26430;48.818;9.244;2023-05-17T04:58:19;4.80;;;0.80;;
2446;SDS011;26430;48.818;9.244;2023-05-17T05:00:45;4.83;;;0.90;;
2446;SDS011;26430;48.818;9.244;2023-05-17T05:03:10;4.83;;;0.90;;
2446;SDS011;26430;48.818;9.244;2023-05-17T05:05:36;4.80;;;0.90;;
2446;SDS011;26430;48.818;9.244;2023-05-17T05:08:01;4.83;;;0.90;;
2446;SDS011;26430;48.818;9.244;2023-05-17T05:10:27;4.80;;;0.80;;
2446;SDS011;26430;48.818;9.244;2023-05-17T05:12:53;4.87;;;0.90;;
2446;SDS011;26430;48.818;9.244;2023-05-17T05:15:18;4.80;;;0.90;;
2446;SDS011;26430;48.818;9.244;2023-05-17T05:17:44;4.83;;;0.80;;
2446;SDS011;26430;48.818;9.244;2023-05-17T05:20:10;4.80;;;0.80;;
2446;SDS011;26430;48.818;9.244;2023-05-17T05:22:35;4.80;;;0.90;;
2446;SDS011;26430;48.818;9.244;2023-05-17T05:25:01;4.87;;;0.90;;
2446;SDS011;26430;48.818;9.244;2023-05-17T05:27:26;4.80;;;0.83;;
2446;SDS011;26430;48.818;9.244;2023-05-17T05:29:53;4.80;;;0.80;;
2446;SDS011;26430;48.818;9.244;2023-05-17T05:32:19;4.82;;;0.90;;
2446;SDS011;26430;48.818;9.244;2023-05-17T05:34:44;4.80;;;0.80;;
2446;SDS011;26430;48.818;9.244;2023-05-17T05:37:10;4.80;;;0.90;;
2446;SDS011;26430;48.818;9.244;2023-05-17T05:39:35;4.80;;;0.90;;
2446;SDS011;26430;48.818;9.244;2023-05-17T05:42:01;4.80;;;0.80;;
2446;SDS011;26430;48.818;9.244;2023-05-17T05:44:28;4.82;;;0.90;;
2446;SDS011;26430;48.818;9.244;2023-05-17T05:46:54;4.80;;;0.80;;
2446;SDS011;26430;48.818;9.244;2023-05-17T05:49:19;4.83;;;0.80;;
2446;SDS011;26430;48.818;9.244;2023-05-17T05:51:45;4.80;;;0.90;;
2446;SDS011;26430;48.818;9.244;2023-05-17T05:54:11;4.80;;;0.80;;
2446;SDS011;26430;48.818;9.244;2023-05-17T05:56:37;4.80;;;0.90;;
2446;SDS011;26430;48.818;9.244;2023-05-17T05:59:03;4.80;;;0.80;;
2446;SDS011;26430;48.818;9.244;2023-05-17T06:01:28;4.80;;;0.80;;
2446;SDS011;26430;48.818;9.244;2023-05-17T06:03:54;4.80;;;0.80;;
2446;SDS011;26430;48.818;9.244;2023-05-17T06:06:20;4.87;;;0.90;;
2446;SDS011;26430;48.818;9.244;2023-05-17T06:08:45;4.80;;;0.90;;
2446;SDS011;26430;48.818;9.244;2023-05-17T06:11:12;4.80;;;0.90;;
2446;SDS011;26430;48.818;9.244;2023-05-17T06:13:38;4.82;;;0.90;;
2446;SDS011;26430;48.818;9.244;2023-05-17T06:16:03;4.80;;;0.90;;
2446;SDS011;26430;48.818;9.244;2023-05-17T06:18:30;4.82;;;0.80;;
2446;SDS011;26430;48.818;9.244;2023-05-17T06:20:55;4.83;;;0.80;;
2446;SDS011;26430;48.818;9.244;2023-05-17T06:23:21;4.80;;;0.90;;
2446;SDS011;26430;48.818;9.244;2023-05-17T06:25:46;4.80;;;0.80;;
2446;SDS011;26430;48.818;9.244;2023-05-17T06:28:12;4.80;;;0.90;;
2446;SDS011;26430;48.818;9.244;2023-05-17T06:30:37;4.87;;;0.90;;
2446;SDS011;26430;48.818;9.244;2023-05-17T06:33:03;4.80;;;0.90;;
2446;SDS011;26430;48.818;9.244;2023-05-17T06:35:29;4.83;;;0.90;;
2446;SDS011;26430;48.818;9.244;2023-05-17T06:37:54;4.83;;;0.90;;
2446;SDS011;26430;48.818;9.244;2023-05-17T06:40:20;4.80;;;0.90;;
2446;SDS011;26430;48.818;9.244;2023-05-17T06:42:45;4.80;;;0.87;;
2446;SDS011;26430;48.818;9.244;2023-05-17T06:45:11;4.80;;;0.87;;
2446;SDS011;26430;48.818;9.244;2023-05-17T06:47:37;4.77;;;0.90;;
2446;SDS011;26430;48.818;9.244;2023-05-17T06:50:02;4.80;;;0.80;;
2446;SDS011;26430;48.818;9.244;2023-05-17T06:52:28;4.80;;;0.90;;
2446;SDS011;26430;48.818;9.244;2023-05-17T06:54:54;4.83;;;0.90;;
2446;SDS011;26430;48.818;9.244;2023-05-17T06:57:19;4.80;;;0.80;;
2446;SDS011;26430;48.818;9.244;2023-05-17T06:59:45;4.80;;;0.90;;
2446;SDS011;26430;48.818;9.244;2023-05-17T07:02:10;4.80;;;0.80;;
2446;SDS011;26430;48.818;9.244;2023-05-17T07:04:36;4.80;;;0.90;;
2446;SDS011;26430;48.818;9.244;2023-05-17T07:07:01;4.80;;;0.90;;
2446;SDS011;26430;48.818;9.244;2023-05-17T07:09:27;4.80;;;0.80;;
2446;SDS011;26430;48.818;9.244;2023-05-17T07:11:53;4.80;;;0.80;;
2446;SDS011;26430;48.818;9.244;2023-05-17T07:14:18;4.80;;;0.90;;
2446;SDS011;26430;48.818;9.244;2023-05-17T07:16:44;4.80;;;0.87;;
2446;SDS011;26430;48.818;9.244;2023-05-17T07:19:09;4.80;;;0.80;;
2446;SDS011;26430;48.818;9.244;2023-05-17T07:21:35;4.80;;;0.90;;
2446;SDS011;26430;48.818;9.244;2023-05-17T07:24:00;4.80;;;0.90;;
2446;SDS011;26430;48.818;9.244;2023-05-17T07:26:26;4.80;;;0.90;;
2446;SDS011;26430;48.818;9.244;2023-05-17T07:28:52;4.80;;;0.80;;
2446;SDS011;26430;48.818;9.244;2023-05-17T07:31:17;4.80;;;0.90;;
2446;SDS011;26430;48.818;9.244;2023-05-17T07:33:43;4.80;;;0.90;;
2446;SDS011;26430;48.818;9.244;2023-05-17T07:36:09;4.80;;;0.80;;
2446;SDS011;26430;48.818;9.244;2023-05-17T07:38:34;4.83;;;1.00;;
2446;SDS011;26430;48.818;9.244;2023-05-17T07:41:00;4.80;;;0.90;;
2446;SDS011;26430;48.818;9.244;2023-05-17T07:43:26;4.82;;;0.90;;
2446;SDS011;26430;48.818;9.244;2023-05-17T07:45:52;4.73;;;0.90;;
2446;SDS011;26430;48.818;9.244;2023-05-17T07:48:17;4.73;;;0.90;;
2446;SDS011;26430;48.818;9.244;2023-05-17T07:50:43;4.80;;;0.90;;
2446;SDS011;26430;48.818;9.244;2023-05-17T07:53:09;4.80;;;0.90;;
2446;SDS011;26430;48.818;9.244;2023-05-17T07:55:34;4.70;;;0.90;;
2446;SDS011;26430;48.818;9.244;2023-05-17T07:58:00;4.78;;;0.80;;
2446;SDS011;26430;48.818;9.244;2023-05-17T08:00:26;4.80;;;0.90;;
2446;SDS011;26430;48.818;9.244;2023-05-17T08:02:52;4.83;;;0.90;;
2446;SDS011;26430;48.818;9.244;2023-05-17T08:05:17;4.73;;;0.90;;
2446;SDS011;26430;48.818;9.244;2023-05-17T08:07:43;4.77;;;0.80;;
2446;SDS011;26430;48.818;9.244;2023-05-17T08:10:08;4.80;;;0.90;;
2446;SDS011;26430;48.818;9.244;2023-05-17T08:12:35;4.78;;;0.90;;
2446;SDS011;26430;48.818;9.244;2023-05-17T08:15:00;4.80;;;0.80;;
2446;SDS011;26430;48.818;9.244;2023-05-17T08:17:26;4.77;;;0.90;;
2446;SDS011;26430;48.818;9.244;2023-05-17T08:19:51;4.70;;;0.80;;
2446;SDS011;26430;48.818;9.244;2023-05-17T08:22:17;4.73;;;0.80;;
2446;SDS011;26430;48.818;9.244;2023-05-17T08:24:43;4.78;;;0.90;;
2446;SDS011;26430;48.818;9.244;2023-05-17T08:27:09;4.73;;;0.90;;
2446;SDS011;26430;48.818;9.244;2023-05-17T08:29:35;4.72;;;0.80;;
2446;SDS011;26430;48.818;9.244;2023-05-17T08:32:01;4.85;;;0.95;;
2446;SDS011;26430;48.818;9.244;2023-05-17T08:34:27;4.80;;;0.90;;
2446;SDS011;26430;48.818;9.244;2023-05-17T08:36:52;4.77;;;0.90;;
2446;SDS011;26430;48.818;9.244;2023-05-17T08:39:18;4.70;;;0.80;;
2446;SDS011;26430;48.818;9.244;2023-05-17T08:41:48;4.80;;;0.90;;
2446;SDS011;26430;48.818;9.244;2023-05-17T08:44:14;4.75;;;0.93;;
2446;SDS011;26430;48.818;9.244;2023-05-17T08:46:43;4.78;;;0.90;;
2446;SDS011;26430;48.818;9.244;2023-05-17T08:49:16;4.80;;;0.90;;
2446;SDS011;26430;48.818;9.244;2023-05-17T08:51:45;4.82;;;0.90;;
2446;SDS011;26430;48.818;9.244;2023-05-17T08:54:14;4.78;;;0.80;;
2446;SDS011;26430;48.818;9.244;2023-05-17T08:56:40;4.70;;;0.90;;
2446;SDS011;26430;48.818;9.244;2023-05-17T08:59:07;4.80;;;0.90;;
2446;SDS011;26430;48.818;9.244;2023-05-17T09:01:37;4.80;;;0.90;;
2446;SDS011;26430;48.818;9.244;2023-05-17T09:04:05;4.80;;;0.90;;
2446;SDS011;26430;48.818;9.244;2023-05-17T09:06:33;4.78;;;0.80;;
2446;SDS011;26430;48.818;9.244;2023-05-17T09:08:59;4.77;;;0.90;;
2446;SDS011;26430;48.818;9.244;2023-05-17T09:11:27;4.75;;;0.80;;
2446;SDS011;26430;48.818;9.244;2023-05-17T09:13:56;4.80;;;0.90;;
2446;SDS011;26430;48.818;9.244;2023-05-17T09:16:27;4.78;;;0.90;;
2446;SDS011;26430;48.818;9.244;2023-05-17T09:18:54;4.78;;;0.90;;
2446;SDS011;26430;48.818;9.244;2023-05-17T09:21:21;4.75;;;0.90;;
2446;SDS011;26430;48.818;9.244;2023-05-17T09:23:49;4.70;;;0.90;;
2446;SDS011;26430;48.818;9.244;2023-05-17T09:26:16;4.72;;;0.90;;
2446;SDS011;26430;48.818;9.244;2023-05-17T09:28:42;4.70;;;0.90;;
2446;SDS011;26430;48.818;9.244;2023-05-17T09:31:08;4.70;;;0.90;;
2446;SDS011;26430;48.818;9.244;2023-05-17T09:33:43;4.78;;;0.90;;
2446;SDS011;26430;48.818;9.244;2023-05-17T09:36:16;4.75;;;0.80;;
2446;SDS011;26430;48.818;9.244;2023-05-17T09:41:26;4.78;;;0.90;;
2446;SDS011;26430;48.818;9.244;2023-05-17T09:43:59;4.70;;;0.80;;
2446;SDS011;26430;48.818;9.244;2023-05-17T09:46:25;5.10;;;1.55;;
2446;SDS011;26430;48.818;9.244;2023-05-17T09:48:55;4.72;;;0.90;;
2446;SDS011;26430;48.818;9.244;2023-05-17T09:51:33;4.80;;;1.00;;
2446;SDS011;26430;48.818;9.244;2023-05-17T09:54:00;4.72;;;0.90;;
2446;SDS011;26430;48.818;9.244;2023-05-17T09:56:27;4.77;;;0.93;;
2446;SDS011;26430;48.818;9.244;2023-05-17T09:58:56;4.78;;;0.80;;
2446;SDS011;26430;48.818;9.244;2023-05-17T10:01:25;4.75;;;0.80;;
2446;SDS011;26430;48.818;9.244;2023-05-17T10:03:52;4.70;;;0.80;;
2446;SDS011;26430;48.818;9.244;2023-05-17T10:06:19;4.80;;;0.90;;
2446;SDS011;26430;48.818;9.244;2023-05-17T10:08:49;4.78;;;1.00;;
2446;SDS011;26430;48.818;9.244;2023-05-17T10:11:20;4.78;;;0.90;;
2446;SDS011;26430;48.818;9.244;2023-05-17T10:13:50;4.80;;;0.90;;
2446;SDS011;26430;48.818;9.244;2023-05-17T10:16:22;4.75;;;0.88;;
2446;SDS011;26430;48.818;9.244;2023-05-17T10:18:49;4.80;;;1.08;;
2446;SDS011;26430;48.818;9.244;2023-05-17T10:21:15;4.75;;;0.90;;
2446;SDS011;26430;48.818;9.244;2023-05-17T10:23:42;4.80;;;0.90;;
2446;SDS011;26430;48.818;9.244;2023-05-17T10:26:09;4.72;;;0.90;;
2446;SDS011;26430;48.818;9.244;2023-05-17T10:28:36;4.78;;;0.90;;
2446;SDS011;26430;48.818;9.244;2023-05-17T10:31:03;4.75;;;0.80;;
2446;SDS011;26430;48.818;9.244;2023-05-17T10:33:30;4.80;;;0.90;;
2446;SDS011;26430;48.818;9.244;2023-05-17T10:35:57;4.68;;;0.80;;
2446;SDS011;26430;48.818;9.244;2023-05-17T10:38:23;4.80;;;0.90;;
2446;SDS011;26430;48.818;9.244;2023-05-17T10:40:50;4.80;;;0.90;;
2446;SDS011;26430;48.818;9.244;2023-05-17T10:43:17;4.78;;;0.90;;
2446;SDS011;26430;48.818;9.244;2023-05-17T10:45:43;4.80;;;0.90;;
2446;SDS011;26430;48.818;9.244;2023-05-17T10:48:10;4.78;;;0.90;;
2446;SDS011;26430;48.818;9.244;2023-05-17T10:50:40;4.72;;;0.90;;
2446;SDS011;26430;48.818;9.244;2023-05-17T10:53:09;4.78;;;0.90;;
2446;SDS011;26430;48.818;9.244;2023-05-17T10:55:36;4.70;;;0.80;;
2446;SDS011;26430;48.818;9.244;2023-05-17T10:58:17;4.75;;;0.80;;
2446;SDS011;26430;48.818;9.244;2023-05-17T11:00:48;4.78;;;0.90;;
2446;SDS011;26430;48.818;9.244;2023-05-17T11:03:16;4.70;;;0.90;;
2446;SDS011;26430;48.818;9.244;2023-05-17T11:05:44;4.72;;;0.80;;
2446;SDS011;26430;48.818;9.244;2023-05-17T11:08:28;4.80;;;0.95;;
2446;SDS011;26430;48.818;9.244;2023-05-17T11:11:07;4.80;;;0.90;;
2446;SDS011;26430;48.818;9.244;2023-05-17T11:13:44;4.78;;;0.80;;
2446;SDS011;26430;48.818;9.244;2023-05-17T11:16:13;4.63;;;0.80;;
2446;SDS011;26430;48.818;9.244;2023-05-17T11:18:51;4.75;;;0.90;;
2446;SDS011;26430;48.818;9.244;2023-05-17T11:21:21;4.80;;;0.90;;
2446;SDS011;26430;48.818;9.244;2023-05-17T11:23:47;4.77;;;0.90;;
2446;SDS011;26430;48.818;9.244;2023-05-17T11:26:22;4.78;;;0.95;;
2446;SDS011;26430;48.818;9.244;2023-05-17T11:29:00;4.80;;;0.90;;
2446;SDS011;26430;48.818;9.244;2023-05-17T11:31:33;4.80;;;1.00;;
2446;SDS011;26430;48.818;9.244;2023-05-17T11:34:03;4.80;;;0.90;;
2446;SDS011;26430;48.818;9.244;2023-05-17T11:36:29;4.80;;;0.90;;
2446;SDS011;26430;48.818;9.244;2023-05-17T11:41:51;4.75;;;0.90;;
2446;SDS011;26430;48.818;9.244;2023-05-17T11:44:21;4.75;;;0.98;;
2446;SDS011;26430;48.818;9.244;2023-05-17T11:46:49;4.75;;;0.80;;
2446;SDS011;26430;48.818;9.244;2023-05-17T11:49:15;4.70;;;0.90;;
2446;SDS011;26430;48.818;9.244;2023-05-17T11:51:41;4.77;;;0.90;;
2446;SDS011;26430;48.818;9.244;2023-05-17T11:54:08;4.73;;;0.87;;
2446;SDS011;26430;48.818;9.244;2023-05-17T11:56:35;4.72;;;0.88;;
2446;SDS011;26430;48.818;9.244;2023-05-17T11:59:01;4.77;;;0.90;;
2446;SDS011;26430;48.818;9.244;2023-05-17T12:01:28;4.72;;;0.90;;
2446;SDS011;26430;48.818;9.244;2023-05-17T12:04:05;4.75;;;0.98;;
2446;SDS011;26430;48.818;9.244;2023-05-17T12:06:31;4.73;;;0.90;;
2446;SDS011;26430;48.818;9.244;2023-05-17T12:08:59;4.80;;;0.90;;
2446;SDS011;26430;48.818;9.244;2023-05-17T12:11:26;4.88;;;1.20;;
2446;SDS011;26430;48.818;9.244;2023-05-17T12:13:52;4.77;;;0.90;;
2446;SDS011;26430;48.818;9.244;2023-05-17T12:16:20;4.73;;;0.80;;
2446;SDS011;26430;48.818;9.244;2023-05-17T12:18:46;4.78;;;0.93;;
2446;SDS011;26430;48.818;9.244;2023-05-17T12:21:13;4.70;;;0.80;;
2446;SDS011;26430;48.818;9.244;2023-05-17T12:23:41;4.78;;;0.90;;
2446;SDS011;26430;48.818;9.244;2023-05-17T12:26:14;4.75;;;0.80;;
2446;SDS011;26430;48.818;9.244;2023-05-17T12:28:45;4.75;;;0.80;;
2446;SDS011;26430;48.818;9.244;2023-05-17T12:31:19;4.75;;;0.90;;
2446;SDS011;26430;48.818;9.244;2023-05-17T12:33:48;4.75;;;0.90;;
2446;SDS011;26430;48.818;9.244;2023-05-17T12:36:15;4.75;;;0.90;;
2446;SDS011;26430;48.818;9.244;2023-05-17T12:38:41;4.70;;;0.90;;
2446;SDS011;26430;48.818;9.244;2023-05-17T12:41:12;4.75;;;0.85;;
2446;SDS011;26430;48.818;9.244;2023-05-17T12:43:39;4.78;;;0.88;;
2446;SDS011;26430;48.818;9.244;2023-05-17T12:46:08;4.78;;;0.90;;
2446;SDS011;26430;48.818;9.244;2023-05-17T12:48:39;4.78;;;1.00;;
2446;SDS011;26430;48.818;9.244;2023-05-17T12:53:35;4.75;;;0.90;;
2446;SDS011;26430;48.818;9.244;2023-05-17T12:56:02;4.80;;;1.08;;
2446;SDS011;26430;48.818;9.244;2023-05-17T12:58:28;4.75;;;0.90;;
2446;SDS011;26430;48.818;9.244;2023-05-17T13:01:01;4.80;;;0.90;;
2446;SDS011;26430;48.818;9.244;2023-05-17T13:03:30;4.75;;;0.90;;
2446;SDS011;26430;48.818;9.244;2023-05-17T13:05:57;4.72;;;0.90;;
2446;SDS011;26430;48.818;9.244;2023-05-17T13:08:30;4.70;;;0.85;;
2446;SDS011;26430;48.818;9.244;2023-05-17T13:13:34;4.75;;;0.88;;
2446;SDS011;26430;48.818;9.244;2023-05-17T13:16:00;4.77;;;0.90;;
2446;SDS011;26430;48.818;9.244;2023-05-17T13:18:26;4.80;;;0.90;;
2446;SDS011;26430;48.818;9.244;2023-05-17T13:20:52;4.72;;;0.88;;
2446;SDS011;26430;48.818;9.244;2023-05-17T13:23:18;4.73;;;0.90;;
2446;SDS011;26430;48.818;9.244;2023-05-17T13:25:44;4.70;;;0.90;;
2446;SDS011;26430;48.818;9.244;2023-05-17T13:28:09;4.73;;;0.90;;
2446;SDS011;26430;48.818;9.244;2023-05-17T13:30:35;4.70;;;0.83;;
2446;SDS011;26430;48.818;9.244;2023-05-17T13:33:01;4.77;;;0.90;;
2446;SDS011;26430;48.818;9.244;2023-05-17T13:35:26;4.77;;;0.90;;
2446;SDS011;26430;48.818;9.244;2023-05-17T13:37:52;4.73;;;0.90;;
2446;SDS011;26430;48.818;9.244;2023-05-17T13:40:17;4.70;;;0.90;;
2446;SDS011;26430;48.818;9.244;2023-05-17T13:42:46;4.77;;;0.90;;
2446;SDS011;26430;48.818;9.244;2023-05-17T13:45:12;4.78;;;0.90;;
2446;SDS011;26430;48.818;9.244;2023-05-17T13:47:37;4.70;;;0.80;;
2446;SDS011;26430;48.818;9.244;2023-05-17T13:50:03;4.70;;;0.90;;
2446;SDS011;26430;48.818;9.244;2023-05-17T13:52:30;4.72;;;0.90;;
2446;SDS011;26430;48.818;9.244;2023-05-17T13:54:55;4.70;;;0.80;;
2446;SDS011;26430;48.818;9.244;2023-05-17T13:57:21;4.72;;;0.90;;
2446;SDS011;26430;48.818;9.244;2023-05-17T13:59:47;4.70;;;0.90;;
2446;SDS011;26430;48.818;9.244;2023-05-17T14:02:13;4.73;;;0.90;;
2446;SDS011;26430;48.818;9.244;2023-05-17T14:04:39;4.75;;;0.90;;
2446;SDS011;26430;48.818;9.244;2023-05-17T14:07:05;4.70;;;0.80;;
2446;SDS011;26430;48.818;9.244;2023-05-17T14:09:31;4.75;;;0.80;;
2446;SDS011;26430;48.818;9.244;2023-05-17T14:12:00;4.75;;;0.90;;
2446;SDS011;26430;48.818;9.244;2023-05-17T14:14:26;4.78;;;0.90;;
2446;SDS011;26430;48.818;9.244;2023-05-17T14:16:55;4.70;;;0.80;;
2446;SDS011;26430;48.818;9.244;2023-05-17T14:19:21;4.72;;;0.90;;
2446;SDS011;26430;48.818;9.244;2023-05-17T14:21:47;4.73;;;0.80;;
2446;SDS011;26430;48.818;9.244;2023-05-17T14:24:14;4.78;;;0.90;;
2446;SDS011;26430;48.818;9.244;2023-05-17T14:26:40;4.70;;;0.90;;
2446;SDS011;26430;48.818;9.244;2023-05-17T14:29:06;4.80;;;0.90;;
2446;SDS011;26430;48.818;9.244;2023-05-17T14:31:31;4.73;;;0.90;;
2446;SDS011;26430;48.818;9.244;2023-05-17T14:33:57;4.70;;;0.80;;
2446;SDS011;26430;48.818;9.244;2023-05-17T14:36:27;4.75;;;0.90;;
2446;SDS011;26430;48.818;9.244;2023-05-17T14:38:53;4.73;;;0.90;;
2446;SDS011;26430;48.818;9.244;2023-05-17T14:41:18;4.70;;;0.80;;
2446;SDS011;26430;48.818;9.244;2023-05-17T14:43:46;4.75;;;0.90;;
2446;SDS011;26430;48.818;9.244;2023-05-17T14:46:11;4.70;;;0.90;;
2446;SDS011;26430;48.818;9.244;2023-05-17T14:48:38;4.80;;;1.00;;
2446;SDS011;26430;48.818;9.244;2023-05-17T14:51:04;4.73;;;0.90;;
2446;SDS011;26430;48.818;9.244;2023-05-17T14:53:29;4.70;;;0.90;;
2446;SDS011;26430;48.818;9.244;2023-05-17T14:55:55;4.80;;;0.90;;
2446;SDS011;26430;48.818;9.244;2023-05-17T14:58:21;4.72;;;0.95;;
2446;SDS011;26430;48.818;9.244;2023-05-17T15:00:47;4.73;;;0.90;;
2446;SDS011;26430;48.818;9.244;2023-05-17T15:03:15;4.72;;;0.80;;
2446;SDS011;26430;48.818;9.244;2023-05-17T15:05:41;4.78;;;0.90;;
2446;SDS011;26430;48.818;9.244;2023-05-17T15:08:07;4.73;;;1.00;;
2446;SDS011;26430;48.818;9.244;2023-05-17T15:10:32;4.73;;;0.90;;
2446;SDS011;26430;48.818;9.244;2023-05-17T15:12:59;4.78;;;0.80;;
2446;SDS011;26430;48.818;9.244;2023-05-17T15:15:25;4.75;;;0.90;;
2446;SDS011;26430;48.818;9.244;2023-05-17T15:17:51;4.72;;;0.80;;
2446;SDS011;26430;48.818;9.244;2023-05-17T15:20:18;4.80;;;0.90;;
2446;SDS011;26430;48.818;9.244;2023-05-17T15:22:44;4.75;;;0.90;;